Create Custom Reports and Graphics: Custom Report

Robertsbridge Vineyards

Current Conditions

9/28/21 2:15 PM (-07:00)
Updated Every 15 Minutes
Temp 70.7 °F   2.2
RH 25 %   38
Dew Pt 33.0 °F   22.2
Wet Bulb 50.9 °F   10.0
Daily Min Temp 39.4 °F   3.2
Daily Max Temp 71.1 °F   2.5
Yesterday’s Min Temp 42.6 °F
Yesterday's Max Temp 73.6 °F
BatVolt 13.7 V   0.1

Last 30 Days

Robertsbridge Vineyards

Daily Data | America/Los_Angeles
as of 9/28/21 2:23 PM PDT
Date Daily Max Temp (°F) Time of Max Temp Daily Min Temp (°F) Time of Min Temp Dew Pt (°F) Max RH (%) Min RH (%) Hrs <= 32F (hrs) Hrs <= 28F (hrs) Hrs 70-85F (hrs) Hrs > 95F (hrs) Powdery Mildew Stress (pts) GDDs (DL) GDDs (Mx/Mn) Chilling <=45F (hrs) Bat Volt Min Day (V)
9/27/21 73.6 1251 42.6 0310 50.5 99 50 0.0 0.0 1.91 0.00 10 7.5 8.1 3.9 12.6
9/26/21 83.5 1356 40.0 0710 41.5 91 11 0.0 0.0 8.07 0.00 20 12.5 11.7 6.6 12.6
9/25/21 88.3 1349 44.5 0051 38.6 79 18 0.0 0.0 2.93 0.00 0 15.1 16.4 0.4 12.6
9/24/21 96.7 1443 50.6 0646 38.2 61 10 0.0 0.0 2.18 1.59 0 20.4 23.7 0.0 12.6
9/23/21 95.5 1646 47.6 0648 39.0 74 10 0.0 0.0 2.67 0.06 0 19.1 21.6 0.0 12.6
9/22/21 91.3 1541 50.3 0438 36.4 62 10 0.0 0.0 2.14 0.00 0 19.3 20.8 0.0 12.6
9/21/21 96.0 1450 48.3 0320 33.7 57 10 0.0 0.0 2.85 1.11 0 22.2 22.1 0.0 12.6
9/20/21 89.6 1428 40.9 0655 33.0 95 7 0.0 0.0 2.90 0.00 0 16.0 15.3 2.2 12.6
9/19/21 77.2 1742 45.9 0637 47.7 98 30 0.0 0.0 5.49 0.00 0 10.2 11.6 0.0 12.6
9/18/21 69.6 1343 49.8 0514 53.3 96 58 0.0 0.0 0.00 0.00 0 9.7 9.7 0.0 12.6
9/17/21 88.7 1407 47.2 0646 46.2 92 16 0.0 0.0 3.52 0.00 0 16.0 18.0 0.0 12.6
9/16/21 89.0 1442 47.9 0657 45.9 86 16 0.0 0.0 4.37 0.00 0 16.5 18.4 0.0 12.6
9/15/21 94.8 1441 51.9 0637 42.6 78 13 0.0 0.0 2.17 0.00 0 19.8 23.4 0.0 12.6
9/14/21 99.0 1515 51.1 0546 39.7 66 10 0.0 0.0 1.76 2.86 0 22.7 25.1 0.0 12.6
9/13/21 96.2 1538 50.1 0443 42.0 73 12 0.0 0.0 1.81 0.63 0 21.2 23.2 0.0 12.6
9/12/21 96.0 1639 51.9 0658 42.8 73 14 0.0 0.0 2.38 0.32 0 21.2 24.0 0.0 12.7
9/11/21 91.6 1528 50.6 0627 47.8 92 17 0.0 0.0 2.68 0.00 0 18.8 21.1 0.0 12.6
9/10/21 88.4 1637 53.8 0025 53.0 98 21 0.0 0.0 4.13 0.00 0 19.8 21.1 0.0 12.6
9/9/21 99.2 1406 58.9 0535 42.5 77 8 0.0 0.0 5.08 2.08 0 25.3 29.0 0.0 12.7
9/8/21 103.0 1448 57.9 0646 42.8 63 10 0.0 0.0 1.82 5.32 0 27.7 30.4 0.0 12.7
9/7/21 101.2 1412 53.2 0543 34.2 51 3 0.0 0.0 2.03 4.81 0 26.1 27.2 0.0 12.6
9/6/21 99.0 1348 47.6 0634 33.0 56 8 0.0 0.0 1.84 4.52 0 23.2 23.3 0.0 12.6
9/5/21 99.1 1649 47.6 0700 34.5 63 5 0.0 0.0 2.04 3.34 0 21.0 23.4 0.0 12.6
9/4/21 96.0 1613 47.6 0639 37.1 73 4 0.0 0.0 2.50 0.71 0 19.5 21.8 0.0 12.6
9/3/21 91.8 1411 45.2 0657 40.4 87 8 0.0 0.0 3.01 0.00 0 18.1 18.5 0.0 12.6
9/2/21 87.6 1402 48.2 0647 44.8 85 16 0.0 0.0 4.19 0.00 0 16.5 17.9 0.0 12.6
9/1/21 87.6 1420 44.7 0339 40.4 73 19 0.0 0.0 4.17 0.00 0 15.9 16.1 0.1 12.6
8/31/21 96.3 1548 45.5 0610 34.4 69 7 0.0 0.0 2.57 1.06 0 19.7 20.9 0.0 12.5
8/30/21 102.1 1437 50.2 0709 32.6 56 5 0.0 0.0 1.48 6.25 0 24.7 26.2 0.0 12.6
8/29/21 102.8 1447 55.0 0624 37.6 57 7 0.0 0.0 1.34 6.25 0 26.8 28.9 0.0 12.6
Max 103.0 - 58.9 - 53.3 99 58 0.0 0.0 8.07 6.25 - 27.7 30.4 6.6 12.7
Avg - - - - 40.9 - - 0.0 0.0 2.87 1.36 - 19.1 20.6 0.4 -
Min 69.6 - 40.0 - 32.6 51 3 0.0 0.0 0.00 0.00 - 7.5 8.1 0.0 12.5
Total - - - - - - - 0.0 0.0 86.04 40.92 - 572.5 618.7 13.2 -